Terminal Aerodrome Forecast
Issued by NWS

Home | Current Version | Previous Version | Text Only | Print | Product List | Glossary On
Versions: 1 2 3 4 5 6 7 8 9 10 11 12 13 14 15
000
FTUS43 KMPX 211100 RRA
TAFRNH
TAF
KRNH 211139Z 2112/2212 32012G19KT P6SM -SHRA OVC015
     FM211500 35013G20KT P6SM OVC030
     FM211800 34012G18KT P6SM SCT040
     FM212200 33007KT P6SM SCT050
     FM220200 VRB03KT P6SM SKC=

USA.gov is the U.S. government's official web portal to all federal, state and local government web resources and services.